Time;durP1;ratioP1;P1;durP2;ratioP2;P2;SDS_P1;SDS_P2;PMS_P1;PMS_P2;Temp;Humidity;BMP_temperature;BMP_pressure;BME280_temperature;BME280_humidity;BME280_pressure;Samples;Min_cycle;Max_cycle;Signal;HPM_P1;HPM_P2
2022/06/21 00:00:08;;;;;;;;;7.00;6.00;;;;;-149.35;100.00;64108.03;5016515;28;45401;-47
2022/06/21 00:02:34;;;;;;;;;8.20;7.20;;;;;-149.35;100.00;64108.03;5018940;28;45439;-48
2022/06/21 00:04:59;;;;;;;;;13.25;8.00;;;;;-149.35;100.00;64108.03;5018727;28;45894;-48
2022/06/21 00:07:26;;;;;;;;;8.25;8.25;;;;;-149.35;100.00;64108.03;5017444;28;45433;-47
2022/06/21 00:09:53;;;;;;;;;8.00;7.60;;;;;-149.35;100.00;64108.03;5017650;28;45380;-47
2022/06/21 00:12:18;;;;;;;;;10.00;10.00;;;;;-149.35;100.00;64108.03;5017541;28;45457;-47
2022/06/21 00:14:44;;;;;;;;;10.50;10.00;;;;;-149.35;100.00;64108.03;5017632;28;45659;-49
2022/06/21 00:17:13;;;;;;;;;7.25;7.25;;;;;-149.35;100.00;64108.03;5018735;28;45338;-48
2022/06/21 00:19:38;;;;;;;;;9.80;8.20;;;;;-149.35;100.00;64108.03;5017438;28;45442;-49
2022/06/21 00:22:05;;;;;;;;;11.00;7.50;;;;;-149.35;100.00;64108.03;5018809;28;45566;-47
2022/06/21 00:24:30;;;;;;;;;7.80;7.40;;;;;-149.35;100.00;64108.03;5016862;28;46658;-47
2022/06/21 00:26:56;;;;;;;;;8.00;8.00;;;;;-149.35;100.00;64108.03;5018712;28;45377;-49
2022/06/21 00:29:21;;;;;;;;;8.50;7.75;;;;;-149.35;100.00;64108.03;5018376;28;45447;-48
2022/06/21 00:31:48;;;;;;;;;9.00;9.00;;;;;-149.35;100.00;64108.03;5018650;28;45660;-46
2022/06/21 00:34:18;;;;;;;;;10.20;10.20;;;;;-149.35;100.00;64108.03;4987472;28;46085;-46
2022/06/21 00:36:44;;;;;;;;;9.20;7.40;;;;;-149.35;100.00;64108.03;5017033;28;45441;-47
2022/06/21 00:39:11;;;;;;;;;8.40;8.40;;;;;-149.35;100.00;64108.03;5017039;28;45256;-51
2022/06/21 00:41:49;;;;;;;;;7.40;7.40;;;;;-149.35;100.00;64108.03;5017223;28;45548;-48
2022/06/21 00:44:20;;;;;;;;;12.00;10.20;;;;;-149.35;100.00;64108.03;5016982;28;46777;-48
2022/06/21 00:46:51;;;;;;;;;9.80;9.80;;;;;-149.35;100.00;64108.03;5000889;28;45352;-47
2022/06/21 00:49:24;;;;;;;;;9.80;9.80;;;;;-149.35;100.00;64108.03;5018286;28;45377;-46
2022/06/21 00:51:51;;;;;;;;;10.60;10.60;;;;;-149.35;100.00;64108.03;5017980;28;45306;-47
2022/06/21 00:54:25;;;;;;;;;12.60;9.80;;;;;-149.35;100.00;64108.03;5016627;28;46551;-47
2022/06/21 00:56:54;;;;;;;;;10.60;10.60;;;;;-149.35;100.00;64108.03;5016479;28;45424;-49
2022/06/21 00:59:26;;;;;;;;;11.60;10.60;;;;;-149.35;100.00;64108.03;5016639;28;45256;-48
2022/06/21 01:01:57;;;;;;;;;9.20;9.20;;;;;-149.35;100.00;64108.03;5018198;28;45278;-47
2022/06/21 01:04:46;;;;;;;;;10.40;10.40;;;;;-149.35;100.00;64108.03;5016534;28;46752;-47
2022/06/21 01:07:12;;;;;;;;;12.20;9.60;;;;;-149.35;100.00;64108.03;5017605;28;45353;-51
2022/06/21 01:09:51;;;;;;;;;11.00;9.50;;;;;-149.35;100.00;64108.03;5000012;28;45375;-50
2022/06/21 01:12:26;;;;;;;;;10.80;10.80;;;;;-149.35;100.00;64108.03;5018200;28;45361;-49
2022/06/21 01:15:10;;;;;;;;;16.20;15.00;;;;;-149.35;100.00;64108.03;5017044;28;46645;-48
2022/06/21 01:17:35;;;;;;;;;13.20;13.20;;;;;-149.35;100.00;64108.03;5016674;28;45508;-46
2022/06/21 01:20:07;;;;;;;;;10.25;10.25;;;;;-149.35;100.00;64108.03;5016202;28;45390;-48
2022/06/21 01:22:54;;;;;;;;;12.60;11.80;;;;;-149.35;100.00;64108.03;5016083;28;45598;-48
2022/06/21 01:25:30;;;;;;;;;12.20;12.20;;;;;-149.35;100.00;64108.03;5017202;28;46508;-46
2022/06/21 01:27:56;;;;;;;;;10.40;10.40;;;;;-149.35;100.00;64108.03;5015914;28;45511;-47
2022/06/21 01:30:22;;;;;;;;;11.00;10.75;;;;;-149.35;100.00;64108.03;5017048;28;45330;-47
2022/06/21 01:32:48;;;;;;;;;11.60;11.40;;;;;-149.35;100.00;64108.03;5017358;28;45531;-46
2022/06/21 01:35:19;;;;;;;;;13.00;13.00;;;;;-149.35;100.00;64108.03;4998668;28;45538;-47
2022/06/21 01:37:45;;;;;;;;;11.80;11.80;;;;;-149.35;100.00;64108.03;4999640;28;45414;-47
2022/06/21 01:40:12;;;;;;;;;13.75;12.50;;;;;-149.35;100.00;64108.03;5015351;28;45257;-45
2022/06/21 01:42:40;;;;;;;;;11.00;10.20;;;;;-149.35;100.00;64108.03;5017126;28;45254;-46
2022/06/21 01:45:09;;;;;;;;;11.00;10.40;;;;;-149.35;100.00;64108.03;5015197;28;46651;-46
2022/06/21 01:47:48;;;;;;;;;10.60;9.40;;;;;-149.35;100.00;64108.03;5015955;28;45343;-46
2022/06/21 01:50:13;;;;;;;;;10.20;10.20;;;;;-149.35;100.00;64108.03;5015299;28;45363;-47
2022/06/21 01:52:43;;;;;;;;;10.75;10.75;;;;;-149.35;100.00;64108.03;5017177;28;45265;-47
2022/06/21 01:55:12;;;;;;;;;8.00;8.00;;;;;-149.35;100.00;64108.03;5015064;28;46153;-47
2022/06/21 01:57:38;;;;;;;;;11.60;11.40;;;;;-149.35;100.00;64108.03;5015606;28;45422;-47
2022/06/21 02:00:04;;;;;;;;;10.50;10.50;;;;;-149.35;100.00;64108.03;5015468;28;45179;-47
2022/06/21 02:02:41;;;;;;;;;11.80;11.40;;;;;-149.35;100.00;64108.03;5001689;28;45452;-50
2022/06/21 02:05:27;;;;;;;;;9.20;9.20;;;;;-149.35;100.00;64108.03;4999033;28;46004;-46
2022/06/21 02:07:56;;;;;;;;;10.00;10.00;;;;;-149.35;100.00;64108.03;4997869;28;45471;-48
2022/06/21 02:10:29;;;;;;;;;11.40;8.80;;;;;-149.35;100.00;64108.03;5013067;28;45370;-47
2022/06/21 02:13:17;;;;;;;;;10.80;10.80;;;;;-149.35;100.00;64108.03;5012994;28;45935;-48
2022/06/21 02:16:09;;;;;;;;;12.00;12.00;;;;;-149.35;100.00;64108.03;5013586;28;46777;-48
2022/06/21 02:18:44;;;;;;;;;10.40;9.80;;;;;-149.35;100.00;64108.03;5007401;28;45400;-51
2022/06/21 02:21:14;;;;;;;;;9.60;9.60;;;;;-149.35;100.00;64108.03;4997303;28;45421;-47
2022/06/21 02:23:40;;;;;;;;;10.60;8.80;;;;;-149.35;100.00;64108.03;5014966;28;45700;-50
2022/06/21 02:26:05;;;;;;;;;10.00;10.00;;;;;-149.35;100.00;64108.03;5016538;28;45822;-48
2022/06/21 02:28:31;;;;;;;;;11.25;11.25;;;;;-149.35;100.00;64108.03;5016269;28;45288;-45
2022/06/21 02:30:57;;;;;;;;;11.25;10.50;;;;;-149.35;100.00;64108.03;5015110;28;45830;-48
2022/06/21 02:33:28;;;;;;;;;10.00;9.20;;;;;-149.35;100.00;64108.03;5015116;28;45984;-48
2022/06/21 02:36:01;;;;;;;;;11.80;10.00;;;;;-149.35;100.00;64108.03;5015916;28;46844;-46
2022/06/21 02:38:37;;;;;;;;;8.80;8.80;;;;;-149.35;100.00;64108.03;5015039;28;45365;-47
2022/06/21 02:41:12;;;;;;;;;10.20;10.20;;;;;-149.35;100.00;64108.03;4999411;28;45278;-47
2022/06/21 02:43:43;;;;;;;;;11.60;10.80;;;;;-149.35;100.00;64108.03;5015019;28;45292;-49
2022/06/21 02:46:10;;;;;;;;;8.60;7.40;;;;;-149.35;100.00;64108.03;4998883;28;46772;-45
2022/06/21 02:48:48;;;;;;;;;11.20;10.60;;;;;-149.35;100.00;64108.03;4998431;28;45438;-45
2022/06/21 02:51:17;;;;;;;;;10.40;10.40;;;;;-149.35;100.00;64108.03;5015008;28;45320;-48
2022/06/21 02:53:55;;;;;;;;;9.20;8.80;;;;;-149.35;100.00;64108.03;4998485;28;45448;-48
2022/06/21 02:56:24;;;;;;;;;12.00;12.00;;;;;-149.35;100.00;64108.03;5014832;28;46239;-47
2022/06/21 02:58:51;;;;;;;;;10.00;10.00;;;;;-149.35;100.00;64108.03;5014673;28;45264;-49
2022/06/21 03:01:19;;;;;;;;;10.80;10.20;;;;;-149.35;100.00;64108.03;4998683;28;45389;-46
2022/06/21 03:03:45;;;;;;;;;10.00;9.60;;;;;-149.35;100.00;64108.03;4998470;28;45645;-46
2022/06/21 03:06:12;;;;;;;;;9.25;9.25;;;;;-149.35;100.00;64108.03;5015697;28;45408;-49
2022/06/21 03:08:45;;;;;;;;;8.80;8.80;;;;;-149.35;100.00;64108.03;5014678;28;45284;-46
2022/06/21 03:11:10;;;;;;;;;11.40;10.00;;;;;-149.35;100.00;64108.03;5014549;28;45465;-47
2022/06/21 03:13:36;;;;;;;;;9.25;9.25;;;;;-149.35;100.00;64108.03;4998681;28;45589;-47
2022/06/21 03:16:11;;;;;;;;;11.75;10.25;;;;;-149.35;100.00;64108.03;5014229;28;45393;-47
2022/06/21 03:18:39;;;;;;;;;10.20;10.20;;;;;-149.35;100.00;64108.03;5014896;28;45487;-47
2022/06/21 03:21:04;;;;;;;;;14.60;11.60;;;;;-149.35;100.00;64108.03;5014184;28;45469;-46
2022/06/21 03:23:30;;;;;;;;;12.75;11.00;;;;;-149.35;100.00;64108.03;5014763;28;45374;-46
2022/06/21 03:25:58;;;;;;;;;8.50;8.50;;;;;-149.35;100.00;64108.03;5007074;28;45704;-47
2022/06/21 03:28:26;;;;;;;;;9.00;9.00;;;;;-149.35;100.00;64108.03;5012360;28;45445;-46
2022/06/21 03:30:59;;;;;;;;;10.40;10.00;;;;;-149.35;100.00;64108.03;5013928;28;45419;-46
2022/06/21 03:33:25;;;;;;;;;12.40;8.80;;;;;-149.35;100.00;64108.03;4998038;28;45462;-47
2022/06/21 03:35:50;;;;;;;;;10.25;10.25;;;;;-149.35;100.00;64108.03;5016925;28;45508;-47
2022/06/21 03:38:15;;;;;;;;;10.00;8.75;;;;;-149.35;100.00;64108.03;5018394;28;45381;-48
2022/06/21 03:43:53;;;;;;;;;10.20;9.00;;;;;-149.35;100.00;64108.03;5019155;28;45506;-47
2022/06/21 03:46:23;;;;;;;;;8.80;8.80;;;;;-149.35;100.00;64108.03;5002824;28;46105;-47
2022/06/21 03:48:55;;;;;;;;;10.00;9.80;;;;;-149.35;100.00;64108.03;5017937;28;45412;-49
2022/06/21 03:51:25;;;;;;;;;9.80;9.00;;;;;-149.35;100.00;64108.03;5001914;28;45391;-46
2022/06/21 03:53:53;;;;;;;;;8.80;8.60;;;;;-149.35;100.00;64108.03;5001923;28;45389;-47
2022/06/21 03:56:26;;;;;;;;;10.60;10.60;;;;;-149.35;100.00;64108.03;5017311;28;47597;-48
2022/06/21 03:59:38;;;;;;;;;10.80;10.40;;;;;-149.35;100.00;64108.03;5017796;28;45303;-47
2022/06/21 04:02:14;;;;;;;;;11.00;10.80;;;;;-149.35;100.00;64108.03;5012900;28;45737;-46
2022/06/21 04:05:04;;;;;;;;;13.60;12.00;;;;;-149.35;100.00;64108.03;5018161;28;45331;-47
2022/06/21 04:07:41;;;;;;;;;5.40;4.80;;;;;-149.35;100.00;64108.03;5018749;28;46146;-48
2022/06/21 04:10:28;;;;;;;;;11.80;11.80;;;;;-149.35;100.00;64108.03;5017167;28;45401;-49
2022/06/21 04:12:56;;;;;;;;;11.60;11.60;;;;;-149.35;100.00;64108.03;5017886;28;45370;-49
2022/06/21 04:15:35;;;;;;;;;12.00;11.00;;;;;-149.35;100.00;64108.03;5018623;28;45501;-46
2022/06/21 04:18:14;;;;;;;;;12.60;12.60;;;;;-149.35;100.00;64108.03;5017297;28;45623;-46
2022/06/21 04:20:56;;;;;;;;;12.80;11.40;;;;;-149.35;100.00;64108.03;5017300;28;45410;-46
2022/06/21 04:23:30;;;;;;;;;13.00;13.00;;;;;-149.35;100.00;64108.03;5016641;28;45272;-48
2022/06/21 04:26:01;;;;;;;;;13.00;12.60;;;;;-149.35;100.00;64108.03;5017326;28;45368;-46
2022/06/21 04:28:31;;;;;;;;;13.80;13.40;;;;;-149.35;100.00;64108.03;5018210;28;46636;-44
2022/06/21 04:31:16;;;;;;;;;14.40;13.00;;;;;-149.35;100.00;64108.03;5016832;28;45488;-45
2022/06/21 04:33:48;;;;;;;;;12.20;12.20;;;;;-149.35;100.00;64108.03;5017532;28;45441;-49
2022/06/21 04:36:23;;;;;;;;;14.20;12.40;;;;;-149.35;100.00;64108.03;5016954;28;45425;-47
2022/06/21 04:39:08;;;;;;;;;12.20;12.20;;;;;-149.35;100.00;64108.03;5016862;28;47041;-47
2022/06/21 04:41:36;;;;;;;;;12.60;12.60;;;;;-149.35;100.00;64108.03;5016827;28;45461;-47
2022/06/21 04:44:19;;;;;;;;;11.20;11.20;;;;;-149.35;100.00;64108.03;5017945;28;45374;-50
2022/06/21 04:47:00;;;;;;;;;15.40;12.00;;;;;-149.35;100.00;64108.03;5017704;28;45438;-47
2022/06/21 04:49:45;;;;;;;;;11.00;10.80;;;;;-149.35;100.00;64108.03;5017786;28;46449;-48
2022/06/21 04:52:20;;;;;;;;;13.80;12.60;;;;;-149.35;100.00;64108.03;5006951;28;45303;-48
2022/06/21 04:54:46;;;;;;;;;16.80;15.20;;;;;-149.35;100.00;64108.03;5016782;28;45323;-48
2022/06/21 04:57:21;;;;;;;;;14.25;12.00;;;;;-149.35;100.00;64108.03;5017830;28;45344;-45
2022/06/21 04:59:48;;;;;;;;;12.60;12.60;;;;;-149.35;100.00;64108.03;5016621;28;46249;-48
2022/06/21 05:02:46;;;;;;;;;11.60;10.20;;;;;-149.35;100.00;64108.03;5016286;28;45395;-50
2022/06/21 05:05:20;;;;;;;;;15.80;13.20;;;;;-149.35;100.00;64108.03;4984234;28;45365;-50
2022/06/21 05:08:11;;;;;;;;;14.00;13.60;;;;;-149.35;100.00;64108.03;5017726;28;45489;-45
2022/06/21 05:10:42;;;;;;;;;15.80;15.00;;;;;-149.35;100.00;64108.03;4999673;28;45576;-47
2022/06/21 05:13:29;;;;;;;;;15.00;15.00;;;;;-149.35;100.00;64108.03;5017572;28;45306;-46
2022/06/21 05:15:55;;;;;;;;;16.00;13.20;;;;;-149.35;100.00;64108.03;5017764;28;45767;-49
2022/06/21 05:18:28;;;;;;;;;12.20;12.00;;;;;-149.35;100.00;64108.03;5016549;28;45390;-49
2022/06/21 05:20:55;;;;;;;;;12.60;12.60;;;;;-149.35;100.00;64108.03;5016071;28;45450;-46
2022/06/21 05:23:20;;;;;;;;;14.80;13.00;;;;;-149.35;100.00;64108.03;5015942;28;45390;-46
2022/06/21 05:25:46;;;;;;;;;15.25;14.00;;;;;-149.35;100.00;64108.03;5017594;28;45252;-46
2022/06/21 05:28:21;;;;;;;;;15.75;13.00;;;;;-149.35;100.00;64108.03;5016732;28;45434;-48
2022/06/21 05:30:54;;;;;;;;;13.60;12.60;;;;;-149.35;100.00;64108.03;5017256;28;46409;-47
2022/06/21 05:33:39;;;;;;;;;12.00;12.00;;;;;-149.35;100.00;64108.03;5016199;28;45383;-47
2022/06/21 05:36:09;;;;;;;;;13.80;12.20;;;;;-149.35;100.00;64108.03;5016200;28;45441;-47
2022/06/21 05:38:35;;;;;;;;;15.20;13.00;;;;;-149.35;100.00;64108.03;5000366;28;45389;-47
2022/06/21 05:41:06;;;;;;;;;13.40;13.00;;;;;-149.35;100.00;64108.03;4999284;28;46514;-46
2022/06/21 05:43:42;;;;;;;;;13.20;12.20;;;;;-149.35;100.00;64108.03;4999962;28;45366;-48
2022/06/21 05:46:16;;;;;;;;;13.80;12.60;;;;;-149.35;100.00;64108.03;5017842;28;45694;-51
2022/06/21 05:48:41;;;;;;;;;15.60;15.60;;;;;-149.35;100.00;64108.03;4999836;28;45410;-48
2022/06/21 05:51:11;;;;;;;;;15.50;15.50;;;;;-149.35;100.00;64108.03;5017188;28;46167;-48
2022/06/21 05:53:43;;;;;;;;;16.80;14.60;;;;;-149.35;100.00;64108.03;5017248;28;45357;-46
2022/06/21 05:56:10;;;;;;;;;18.40;14.80;;;;;-149.35;100.00;64108.03;4999407;28;45456;-47
2022/06/21 05:58:38;;;;;;;;;12.80;12.80;;;;;-149.35;100.00;64108.03;5015614;28;45446;-48
2022/06/21 06:01:04;;;;;;;;;18.20;14.40;;;;;-149.35;100.00;64108.03;5015386;28;45981;-48
2022/06/21 06:03:35;;;;;;;;;14.50;13.00;;;;;-149.35;100.00;64108.03;5016989;28;45206;-47
2022/06/21 06:06:05;;;;;;;;;13.60;12.00;;;;;-149.35;100.00;64108.03;5016784;28;45308;-47
2022/06/21 06:08:33;;;;;;;;;13.60;13.00;;;;;-149.35;100.00;64108.03;5015788;28;45411;-49
2022/06/21 06:11:00;;;;;;;;;19.80;16.60;;;;;-149.35;100.00;64108.03;5016209;28;46788;-46
2022/06/21 06:13:28;;;;;;;;;13.80;12.80;;;;;-149.35;100.00;64108.03;5015696;28;45358;-50
2022/06/21 06:15:56;;;;;;;;;14.00;14.00;;;;;-149.35;100.00;64108.03;4978576;28;45411;-49
2022/06/21 06:18:29;;;;;;;;;15.80;12.80;;;;;-149.35;100.00;64108.03;5015949;28;45392;-47
2022/06/21 06:21:17;;;;;;;;;14.60;13.40;;;;;-149.35;100.00;64108.03;5016513;28;45451;-47
2022/06/21 06:24:04;;;;;;;;;15.20;13.20;;;;;-149.35;100.00;64108.03;5016794;28;45286;-49
2022/06/21 06:26:33;;;;;;;;;15.20;15.20;;;;;-149.35;100.00;64108.03;5015521;28;45443;-49
2022/06/21 06:29:19;;;;;;;;;14.40;14.40;;;;;-149.35;100.00;64108.03;4999230;28;45367;-45
2022/06/21 06:31:51;;;;;;;;;14.40;13.00;;;;;-149.35;100.00;64108.03;5015175;28;46859;-49
2022/06/21 06:34:18;;;;;;;;;18.00;18.00;;;;;-149.35;100.00;64108.03;5016255;28;45362;-48
2022/06/21 06:36:55;;;;;;;;;15.60;14.80;;;;;-149.35;100.00;64108.03;4999045;28;45689;-47
2022/06/21 06:39:24;;;;;;;;;16.80;15.60;;;;;-149.35;100.00;64108.03;5015365;28;45327;-48
2022/06/21 06:41:52;;;;;;;;;15.40;14.00;;;;;-149.35;100.00;64108.03;5016118;28;46836;-48
2022/06/21 06:44:17;;;;;;;;;17.80;14.60;;;;;-149.35;100.00;64108.03;5014934;28;45555;-49
2022/06/21 06:46:43;;;;;;;;;13.75;13.50;;;;;-149.35;100.00;64108.03;5016364;28;45435;-49
2022/06/21 06:49:18;;;;;;;;;16.20;13.20;;;;;-149.35;100.00;64108.03;5016379;28;45414;-48
2022/06/21 06:52:07;;;;;;;;;16.40;15.40;;;;;-149.35;100.00;64108.03;5016016;28;45293;-47
2022/06/21 06:54:49;;;;;;;;;18.40;16.40;;;;;-149.35;100.00;64108.03;5016623;28;45357;-48
2022/06/21 06:57:29;;;;;;;;;17.00;15.60;;;;;-149.35;100.00;64108.03;4994859;28;45378;-48
2022/06/21 06:59:56;;;;;;;;;14.20;14.20;;;;;-149.35;100.00;64108.03;4995764;28;45400;-54
2022/06/21 07:02:33;;;;;;;;;18.80;17.40;;;;;-149.35;100.00;64108.03;4994416;28;45894;-48
2022/06/21 07:05:19;;;;;;;;;16.60;16.60;;;;;-149.35;100.00;64108.03;4979910;28;45339;-50
2022/06/21 07:07:57;;;;;;;;;18.20;16.40;;;;;-149.35;100.00;64108.03;4995689;28;45335;-49
2022/06/21 07:10:24;;;;;;;;;16.60;15.60;;;;;-149.35;100.00;64108.03;4978652;28;45278;-48
2022/06/21 07:12:50;;;;;;;;;22.00;18.60;;;;;-149.35;100.00;64108.03;4995803;28;46165;-49
2022/06/21 07:15:17;;;;;;;;;21.60;19.00;;;;;-149.35;100.00;64108.03;4994919;28;45405;-46
2022/06/21 07:17:54;;;;;;;;;18.00;16.40;;;;;-149.35;100.00;64108.03;4978418;28;45697;-49
2022/06/21 07:20:34;;;;;;;;;22.00;21.80;;;;;-149.35;100.00;64108.03;5000383;28;45576;-50
2022/06/21 07:23:03;;;;;;;;;20.80;20.00;;;;;-149.35;100.00;64108.03;5013873;28;45552;-48
2022/06/21 07:25:38;;;;;;;;;22.80;18.20;;;;;-149.35;100.00;64108.03;4997657;28;45333;-52
2022/06/21 07:28:24;;;;;;;;;14.80;14.80;;;;;-149.35;100.00;64108.03;4999195;28;45357;-47
2022/06/21 07:30:57;;;;;;;;;15.80;14.80;;;;;-149.35;100.00;64108.03;5015534;28;45230;-49
2022/06/21 07:33:22;;;;;;;;;19.80;16.80;;;;;-149.35;100.00;64108.03;4998375;28;45516;-50
2022/06/21 07:35:49;;;;;;;;;13.75;11.00;;;;;-149.35;100.00;64108.03;5015448;28;45330;-49
2022/06/21 07:38:46;;;;;;;;;13.80;13.80;;;;;-149.35;100.00;64108.03;4998308;28;45359;-50
2022/06/21 07:41:31;;;;;;;;;17.00;16.00;;;;;-149.35;100.00;64108.03;4976113;28;45600;-47
2022/06/21 07:43:58;;;;;;;;;19.00;16.00;;;;;-149.35;100.00;64108.03;5015213;28;46207;-48
2022/06/21 07:46:33;;;;;;;;;24.40;21.80;;;;;-149.35;100.00;64108.03;4997737;28;45350;-46
2022/06/21 07:49:22;;;;;;;;;17.80;17.20;;;;;-149.35;100.00;64108.03;4998149;28;45923;-51
2022/06/21 07:51:50;;;;;;;;;18.00;17.80;;;;;-149.35;100.00;64108.03;5015528;28;45353;-52
2022/06/21 07:54:24;;;;;;;;;19.00;16.60;;;;;-149.35;100.00;64108.03;4997813;28;45577;-49
2022/06/21 07:56:56;;;;;;;;;23.80;23.80;;;;;-149.35;100.00;64108.03;4997852;28;45427;-48
2022/06/21 07:59:22;;;;;;;;;22.00;21.20;;;;;-149.35;100.00;64108.03;5014293;28;46011;-52
2022/06/21 08:07:46;;;;;;;;;20.80;18.60;;;;;-149.35;100.00;64108.03;5013803;28;45337;-50
2022/06/21 08:10:19;;;;;;;;;25.50;25.00;;;;;-149.35;100.00;64108.03;5015185;28;45345;-51
2022/06/21 08:12:45;;;;;;;;;22.00;19.80;;;;;-149.35;100.00;64108.03;5014035;28;45567;-49
2022/06/21 08:15:10;;;;;;;;;21.60;19.60;;;;;-149.35;100.00;64108.03;5015081;28;45342;-47
2022/06/21 08:17:40;;;;;;;;;18.50;18.00;;;;;-149.35;100.00;64108.03;5013797;28;45465;-49
2022/06/21 08:20:13;;;;;;;;;23.40;17.20;;;;;-149.35;100.00;64108.03;4990360;28;45542;-49
2022/06/21 08:22:45;;;;;;;;;19.80;19.00;;;;;-149.35;100.00;64108.03;5000768;28;45349;-49
2022/06/21 08:25:31;;;;;;;;;16.20;16.20;;;;;-149.35;100.00;64108.03;5018566;28;46468;-48
2022/06/21 08:28:25;;;;;;;;;18.40;17.20;;;;;-149.35;100.00;64108.03;5018318;28;45799;-48
2022/06/21 08:30:54;;;;;;;;;13.60;13.60;;;;;-149.35;100.00;64108.03;5011540;28;45326;-48
2022/06/21 08:33:43;;;;;;;;;16.00;15.20;;;;;-149.35;100.00;64108.03;5013844;28;45655;-51
2022/06/21 08:36:29;;;;;;;;;19.60;17.40;;;;;-149.35;100.00;64108.03;5031875;28;46494;-47
2022/06/21 08:39:04;;;;;;;;;17.60;15.40;;;;;-149.35;100.00;64108.03;4995745;28;45377;-47
2022/06/21 08:41:55;;;;;;;;;19.40;18.20;;;;;-149.35;100.00;64108.03;4996354;28;45446;-46
2022/06/21 08:44:39;;;;;;;;;20.00;19.40;;;;;-149.35;100.00;64108.03;4997445;28;45374;-47
2022/06/21 08:47:04;;;;;;;;;19.60;19.60;;;;;-149.35;100.00;64108.03;4995212;28;48380;-47
2022/06/21 08:49:57;;;;;;;;;20.00;17.75;;;;;-149.35;100.00;64108.03;5005705;28;45325;-46
2022/06/21 08:52:38;;;;;;;;;20.60;20.20;;;;;-149.35;100.00;64108.03;5017070;28;45390;-50
2022/06/21 08:55:22;;;;;;;;;15.00;15.00;;;;;-149.35;100.00;64108.03;5017115;28;45459;-48
2022/06/21 08:57:58;;;;;;;;;17.40;17.20;;;;;-149.35;100.00;64108.03;5016961;28;45629;-51
2022/06/21 09:00:38;;;;;;;;;18.60;16.80;;;;;-149.35;100.00;64108.03;5015283;28;45995;-49
2022/06/21 09:03:42;;;;;;;;;22.20;22.20;;;;;-149.35;100.00;64108.03;4999097;28;45455;-52
2022/06/21 09:06:26;;;;;;;;;12.60;10.80;;;;;-149.35;100.00;64108.03;5016980;28;45418;-48
2022/06/21 09:09:20;;;;;;;;;17.40;17.40;;;;;-149.35;100.00;64108.03;5015078;28;46746;-49
2022/06/21 09:11:48;;;;;;;;;18.60;17.60;;;;;-149.35;100.00;64108.03;5015587;28;45405;-45
2022/06/21 09:14:42;;;;;;;;;19.40;19.40;;;;;-149.35;100.00;64108.03;5016508;28;45406;-46
2022/06/21 09:17:29;;;;;;;;;21.60;19.20;;;;;-149.35;100.00;64108.03;5016446;28;45405;-50
2022/06/21 09:20:17;;;;;;;;;17.80;16.20;;;;;-149.35;100.00;64108.03;4999353;28;45772;-48
2022/06/21 09:23:08;;;;;;;;;20.00;16.80;;;;;-149.35;100.00;64108.03;4960121;28;45755;-48
2022/06/21 09:25:44;;;;;;;;;21.40;20.40;;;;;-149.35;100.00;64108.03;5008359;28;45827;-48
2022/06/21 09:28:10;;;;;;;;;17.60;16.60;;;;;-149.35;100.00;64108.03;5009951;28;45805;-52
2022/06/21 09:30:44;;;;;;;;;16.00;14.25;;;;;-149.35;100.00;64108.03;5011134;28;45922;-47
2022/06/21 09:33:42;;;;;;;;;21.60;20.60;;;;;-149.35;100.00;64108.03;5010255;28;45472;-47
2022/06/21 09:36:43;;;;;;;;;20.40;19.40;;;;;-149.35;100.00;64108.03;5012310;28;45456;-48
2022/06/21 09:39:12;;;;;;;;;27.40;19.60;;;;;-149.35;100.00;64108.03;5006289;28;45660;-48
2022/06/21 09:42:01;;;;;;;;;26.80;22.00;;;;;-149.35;100.00;64108.03;5011808;28;45777;-49
2022/06/21 09:44:47;;;;;;;;;19.00;17.00;;;;;-149.35;100.00;64108.03;4981959;28;45498;-49
2022/06/21 09:47:31;;;;;;;;;17.60;17.40;;;;;-149.35;100.00;64108.03;5008852;28;45782;-47
2022/06/21 09:50:03;;;;;;;;;18.60;17.40;;;;;-149.35;100.00;64108.03;5009634;28;45804;-48
2022/06/21 09:52:31;;;;;;;;;16.00;15.00;;;;;-149.35;100.00;64108.03;5010092;28;46602;-50
2022/06/21 09:54:57;;;;;;;;;20.80;18.60;;;;;-149.35;100.00;64108.03;5012194;28;45448;-46
2022/06/21 09:57:37;;;;;;;;;17.50;16.50;;;;;-149.35;100.00;64108.03;5012039;28;45457;-47
2022/06/21 10:00:11;;;;;;;;;22.80;22.80;;;;;-149.35;100.00;64108.03;5011611;28;45481;-47
2022/06/21 10:02:39;;;;;;;;;23.00;20.40;;;;;-149.35;100.00;64108.03;5009765;28;46565;-47
2022/06/21 10:05:37;;;;;;;;;22.60;19.20;;;;;-149.35;100.00;64108.03;5010875;28;45842;-48
2022/06/21 10:08:24;;;;;;;;;21.80;21.80;;;;;-149.35;100.00;64108.03;5011411;28;45541;-50
2022/06/21 10:11:15;;;;;;;;;17.00;15.60;;;;;-149.35;100.00;64108.03;5011602;28;45477;-47
2022/06/21 10:13:48;;;;;;;;;23.00;20.20;;;;;-149.35;100.00;64108.03;5010037;28;46749;-48
2022/06/21 10:16:13;;;;;;;;;17.80;16.80;;;;;-149.35;100.00;64108.03;5010811;28;45870;-52
2022/06/21 10:19:03;;;;;;;;;19.00;18.00;;;;;-149.35;100.00;64108.03;5011602;28;45874;-50
2022/06/21 10:21:59;;;;;;;;;20.00;19.60;;;;;-149.35;100.00;64108.03;5009681;28;45844;-48
2022/06/21 10:24:58;;;;;;;;;23.60;21.00;;;;;-149.35;100.00;64108.03;4999288;28;46567;-48
2022/06/21 10:27:42;;;;;;;;;20.20;19.20;;;;;-149.35;100.00;64108.03;4992788;28;45674;-48
2022/06/21 10:30:46;;;;;;;;;23.60;20.80;;;;;-149.35;100.00;64108.03;5011480;28;45528;-50
2022/06/21 10:33:30;;;;;;;;;21.40;19.40;;;;;-149.35;100.00;64108.03;5011791;28;45653;-49
2022/06/21 10:36:19;;;;;;;;;21.00;17.80;;;;;-149.35;100.00;64108.03;5011604;28;46695;-46
2022/06/21 10:39:07;;;;;;;;;17.40;17.40;;;;;-149.35;100.00;64108.03;4994883;28;45394;-48
2022/06/21 10:44:48;;;;;;;;;15.40;15.40;;;;;-149.35;100.00;64108.03;4998272;28;45505;-47
2022/06/21 10:48:04;;;;;;;;;16.60;16.60;;;;;-149.35;100.00;64108.03;4993912;28;45995;-45
2022/06/21 10:50:55;;;;;;;;;18.00;15.80;;;;;-149.35;100.00;64108.03;5010654;28;45427;-48
2022/06/21 10:53:42;;;;;;;;;12.60;12.00;;;;;-149.35;100.00;64108.03;5009425;28;45715;-49
2022/06/21 10:59:16;;;;;;;;;15.60;15.00;;;;;-149.35;100.00;64108.03;4991668;28;45446;-50
2022/06/21 11:01:44;;;;;;;;;13.40;12.60;;;;;-149.35;100.00;64108.03;4990335;28;45901;-51
2022/06/21 11:04:32;;;;;;;;;18.60;18.60;;;;;-149.35;100.00;64108.03;4974136;28;45935;-53
2022/06/21 11:07:53;;;;;;;;;20.00;18.20;;;;;-149.35;100.00;64108.03;5011504;28;45539;-48
2022/06/21 11:10:22;;;;;;;;;20.40;18.20;;;;;-149.35;100.00;64108.03;4932387;28;45866;-47
2022/06/21 11:12:53;;;;;;;;;21.60;21.60;;;;;-149.35;100.00;64108.03;5009518;28;45548;-46
2022/06/21 11:15:18;;;;;;;;;23.20;21.00;;;;;-149.35;100.00;64108.03;4993928;28;45800;-49
2022/06/21 11:18:05;;;;;;;;;20.25;16.75;;;;;-149.35;100.00;64108.03;5010280;28;45326;-49
2022/06/21 11:20:35;;;;;;;;;20.40;19.40;;;;;-149.35;100.00;64108.03;5009766;28;46515;-47
2022/06/21 11:23:15;;;;;;;;;24.00;22.80;;;;;-149.35;100.00;64108.03;5000146;28;45515;-48
2022/06/21 11:25:40;;;;;;;;;19.00;19.00;;;;;-149.35;100.00;64108.03;5011558;28;45639;-47
2022/06/21 11:28:31;;;;;;;;;23.75;23.75;;;;;-149.35;100.00;64108.03;5010333;28;45566;-48
2022/06/21 11:31:35;;;;;;;;;19.00;19.00;;;;;-149.35;100.00;64108.03;5000462;28;47860;-48
2022/06/21 11:34:10;;;;;;;;;19.00;19.00;;;;;-149.35;100.00;64108.03;5007817;28;45326;-48
2022/06/21 11:36:54;;;;;;;;;27.80;19.20;;;;;-149.35;100.00;64108.03;5007685;28;45473;-47
2022/06/21 11:39:34;;;;;;;;;20.60;19.00;;;;;-149.35;100.00;64108.03;5011534;28;45749;-45
2022/06/21 11:42:15;;;;;;;;;23.20;21.00;;;;;-149.35;100.00;64108.03;5009705;28;45602;-50
2022/06/21 11:44:40;;;;;;;;;21.80;21.20;;;;;-149.35;100.00;64108.03;5009625;28;45833;-46
2022/06/21 11:47:19;;;;;;;;;23.00;21.25;;;;;-149.35;100.00;64108.03;5010233;28;45541;-47